createdAt,value
2018-08-27T00:02:23.350Z,99.70
2018-08-27T00:07:26.397Z,99.30
2018-08-27T00:12:29.489Z,99.60
2018-08-27T00:17:32.548Z,99.20
2018-08-27T00:22:35.625Z,99.40
2018-08-27T00:27:38.691Z,99.40
2018-08-27T00:32:41.878Z,99.30
2018-08-27T00:37:44.909Z,99.10
2018-08-27T00:42:48.003Z,98.90
2018-08-27T00:47:51.068Z,98.70
2018-08-27T00:52:54.140Z,98.50
2018-08-27T00:57:57.223Z,98.20
2018-08-27T01:03:00.250Z,98.00
2018-08-27T01:08:03.268Z,97.60
2018-08-27T01:13:06.344Z,98.00
2018-08-27T01:18:09.416Z,97.60
2018-08-27T01:23:12.481Z,97.80
2018-08-27T01:28:15.572Z,97.80
2018-08-27T01:33:18.708Z,97.70
2018-08-27T01:38:21.713Z,97.80
2018-08-27T01:43:24.784Z,98.10
2018-08-27T01:48:27.812Z,98.20
2018-08-27T01:53:31.042Z,98.40
2018-08-27T01:58:34.181Z,98.90
2018-08-27T02:03:37.307Z,99.30
2018-08-27T02:08:40.462Z,99.40
2018-08-27T02:13:43.476Z,99.00
2018-08-27T02:18:46.551Z,98.80
2018-08-27T02:23:49.732Z,99.10
2018-08-27T02:28:52.748Z,99.20
2018-08-27T02:33:55.744Z,99.60
2018-08-27T02:38:58.877Z,99.90
2018-08-27T02:44:01.941Z,99.90
2018-08-27T02:49:05.043Z,99.90
2018-08-27T02:54:08.139Z,99.90
2018-08-27T02:59:11.294Z,99.90
2018-08-27T03:04:14.360Z,99.90
2018-08-27T03:09:17.391Z,99.90
2018-08-27T03:14:20.576Z,99.90
2018-08-27T03:19:23.609Z,99.90
2018-08-27T03:24:26.698Z,99.90
2018-08-27T03:29:29.800Z,99.90
2018-08-27T03:34:32.838Z,99.90
2018-08-27T03:39:35.921Z,99.90
2018-08-27T03:44:39.067Z,99.90
2018-08-27T03:49:42.313Z,99.90
2018-08-27T03:54:45.357Z,99.90
2018-08-27T03:59:48.411Z,99.90
2018-08-27T04:04:51.464Z,99.90
2018-08-27T04:09:54.481Z,99.90
2018-08-27T04:14:57.585Z,99.90
2018-08-27T04:20:02.027Z,99.90
2018-08-27T04:25:05.127Z,99.90
2018-08-27T04:30:08.210Z,99.90
2018-08-27T04:35:11.297Z,99.90
2018-08-27T04:40:14.382Z,99.90
2018-08-27T04:45:17.475Z,99.90
2018-08-27T04:50:20.547Z,99.90
2018-08-27T04:55:23.655Z,99.90
2018-08-27T05:00:31.250Z,99.90
2018-08-27T05:05:34.547Z,99.90
2018-08-27T05:10:37.678Z,99.90
2018-08-27T05:15:40.737Z,99.90
2018-08-27T05:20:43.898Z,99.60
2018-08-27T05:25:46.964Z,99.30
2018-08-27T05:30:50.090Z,99.30
2018-08-27T05:35:53.195Z,99.00
2018-08-27T05:40:56.285Z,98.70
2018-08-27T05:45:59.380Z,98.80
2018-08-27T05:51:02.561Z,98.80
2018-08-27T05:56:05.803Z,98.80
2018-08-27T06:01:08.901Z,98.40
2018-08-27T06:06:12.072Z,98.50
2018-08-27T06:11:15.255Z,99.20
2018-08-27T06:16:18.381Z,99.00
2018-08-27T06:21:21.348Z,98.80
2018-08-27T06:26:24.380Z,97.80
2018-08-27T06:31:34.197Z,95.00
2018-08-27T06:36:37.690Z,91.80
2018-08-27T06:41:40.740Z,90.60
2018-08-27T06:46:43.801Z,91.30
2018-08-27T06:51:46.875Z,91.70
2018-08-27T06:56:50.036Z,91.50
2018-08-27T07:01:53.187Z,90.70
2018-08-27T07:06:56.287Z,90.20
2018-08-27T07:11:59.407Z,91.00
2018-08-27T07:17:02.629Z,90.70
2018-08-27T07:22:05.800Z,90.50
2018-08-27T07:27:08.865Z,88.90
2018-08-27T07:32:11.960Z,87.90
2018-08-27T07:37:15.023Z,88.10
2018-08-27T07:42:18.166Z,86.60
2018-08-27T07:47:21.235Z,85.60
2018-08-27T07:52:24.302Z,85.70
2018-08-27T07:57:27.412Z,85.50
2018-08-27T08:02:30.604Z,84.50
2018-08-27T08:07:33.660Z,82.40
2018-08-27T08:12:36.739Z,79.30
2018-08-27T08:17:39.812Z,77.00
2018-08-27T08:22:43.484Z,77.80
2018-08-27T08:27:46.588Z,73.90
2018-08-27T08:32:49.722Z,70.90
2018-08-27T08:37:52.874Z,67.90
2018-08-27T08:42:56.032Z,66.30
2018-08-27T08:47:59.051Z,67.80
2018-08-27T08:53:02.202Z,66.20
2018-08-27T08:58:05.407Z,65.00
2018-08-27T09:03:08.449Z,64.50
2018-08-27T09:08:11.759Z,61.80
2018-08-27T09:13:14.904Z,61.50
2018-08-27T09:18:17.956Z,61.80
2018-08-27T09:23:21.024Z,62.00
2018-08-27T09:28:24.183Z,62.60
2018-08-27T09:33:27.204Z,61.50
2018-08-27T09:38:30.233Z,63.50
2018-08-27T09:43:33.272Z,63.20
2018-08-27T09:48:36.404Z,66.80
2018-08-27T09:53:39.529Z,68.20
2018-08-27T09:58:42.804Z,64.30
2018-08-27T10:03:45.853Z,64.70
2018-08-27T10:08:49.045Z,64.90
2018-08-27T10:13:52.030Z,65.30
2018-08-27T10:18:55.092Z,62.70
2018-08-27T10:23:58.191Z,62.70
2018-08-27T10:29:01.249Z,62.80
2018-08-27T10:34:04.435Z,63.60
2018-08-27T10:39:08.566Z,63.70
2018-08-27T10:44:11.569Z,64.20
2018-08-27T10:49:14.616Z,63.70
2018-08-27T10:54:17.681Z,64.20
2018-08-27T10:59:20.759Z,63.90
2018-08-27T11:04:23.783Z,64.20
2018-08-27T11:09:26.842Z,63.60
2018-08-27T11:14:29.891Z,64.40
2018-08-27T11:19:32.935Z,64.30
2018-08-27T11:24:36.001Z,66.10
2018-08-27T11:29:39.052Z,65.30
2018-08-27T11:34:42.077Z,65.00
2018-08-27T11:39:45.182Z,65.80
2018-08-27T11:44:48.232Z,66.00
2018-08-27T11:49:51.282Z,67.10
2018-08-27T11:54:54.371Z,67.20
2018-08-27T11:59:57.765Z,66.20
2018-08-27T12:05:00.826Z,66.50
2018-08-27T12:10:03.941Z,66.10
2018-08-27T12:15:06.983Z,66.50
2018-08-27T12:20:10.069Z,67.20
2018-08-27T12:25:13.216Z,66.00
2018-08-27T12:30:16.300Z,66.60
2018-08-27T12:35:19.316Z,65.10
2018-08-27T12:40:22.407Z,65.50
2018-08-27T12:45:25.467Z,65.10
2018-08-27T12:50:28.760Z,65.90
2018-08-27T12:55:31.830Z,65.70
2018-08-27T13:00:34.918Z,65.70
2018-08-27T13:05:38.067Z,64.30
2018-08-27T13:10:41.101Z,64.20
2018-08-27T13:15:44.255Z,63.80
2018-08-27T13:20:47.265Z,64.40
2018-08-27T13:25:50.395Z,64.20
2018-08-27T13:30:53.479Z,63.40
2018-08-27T13:35:56.564Z,63.60
2018-08-27T13:40:59.691Z,63.00
2018-08-27T13:46:02.791Z,64.80
2018-08-27T13:51:05.868Z,63.60
2018-08-27T13:56:08.895Z,66.00
2018-08-27T14:01:11.939Z,67.00
2018-08-27T14:06:14.970Z,67.40
2018-08-27T14:11:18.000Z,68.30
2018-08-27T14:16:21.081Z,70.30
2018-08-27T14:21:24.169Z,70.70
2018-08-27T14:26:27.320Z,72.70
2018-08-27T14:31:30.442Z,73.40
2018-08-27T14:36:33.505Z,74.50
2018-08-27T14:41:36.680Z,74.70
2018-08-27T14:46:39.944Z,75.20
2018-08-27T14:51:43.025Z,76.30
2018-08-27T14:56:46.101Z,76.90
2018-08-27T15:01:49.314Z,77.90
2018-08-27T15:06:52.378Z,77.50
2018-08-27T15:11:55.513Z,78.90
2018-08-27T15:16:58.668Z,78.60
2018-08-27T15:22:01.929Z,78.70
2018-08-27T15:27:05.113Z,79.10
2018-08-27T15:32:08.200Z,79.10
2018-08-27T15:37:11.372Z,79.30
2018-08-27T15:42:14.430Z,79.00
2018-08-27T15:47:17.494Z,78.90
2018-08-27T15:52:20.512Z,79.50
2018-08-27T15:57:23.673Z,79.60
2018-08-27T16:02:26.747Z,79.20
2018-08-27T16:07:29.812Z,79.30
2018-08-27T16:12:33.884Z,79.80
2018-08-27T16:17:37.189Z,79.30
2018-08-27T16:22:40.351Z,79.30
2018-08-27T16:27:43.465Z,80.00
2018-08-27T16:32:46.531Z,80.60
2018-08-27T16:37:49.599Z,80.90
2018-08-27T16:42:52.599Z,81.40
2018-08-27T16:47:55.670Z,82.40
2018-08-27T16:52:58.720Z,81.80
2018-08-27T16:58:01.838Z,82.60
2018-08-27T17:03:04.904Z,83.00
2018-08-27T17:08:08.066Z,83.60
2018-08-27T17:13:11.130Z,84.10
2018-08-27T17:23:45.427Z,84.90
2018-08-27T17:28:48.623Z,85.60
2018-08-27T17:33:51.705Z,86.40
2018-08-27T17:38:54.764Z,87.10
2018-08-27T17:43:57.889Z,87.40
2018-08-27T17:49:01.030Z,88.40
2018-08-27T17:54:04.095Z,89.90
2018-08-27T17:59:07.147Z,90.10
2018-08-27T18:04:10.199Z,90.30
2018-08-27T18:09:13.406Z,91.00
2018-08-27T18:14:16.456Z,91.80
2018-08-27T18:19:19.471Z,93.90
2018-08-27T18:24:22.592Z,95.20
2018-08-27T18:29:31.554Z,96.10
2018-08-27T18:34:34.564Z,96.90
2018-08-27T18:39:37.817Z,98.00
2018-08-27T18:49:52.987Z,99.70
2018-08-27T18:54:56.156Z,99.90
2018-08-27T18:59:59.302Z,99.90
2018-08-27T19:05:02.807Z,99.90
2018-08-27T19:10:05.997Z,99.90
2018-08-27T19:15:09.031Z,99.90
2018-08-27T19:20:12.099Z,99.90
2018-08-27T19:25:15.177Z,99.90
2018-08-27T19:30:19.006Z,99.90
2018-08-27T19:35:22.085Z,99.90
2018-08-27T19:40:25.201Z,99.90
2018-08-27T19:45:28.485Z,99.90
2018-08-27T19:50:31.550Z,99.90
2018-08-27T19:55:35.576Z,99.90
2018-08-27T20:00:38.575Z,99.90
2018-08-27T20:05:41.905Z,99.90
2018-08-27T20:10:44.937Z,99.90
2018-08-27T20:15:48.067Z,99.90
2018-08-27T20:20:51.121Z,99.90
2018-08-27T20:25:54.711Z,99.90
2018-08-27T20:30:57.734Z,99.90
2018-08-27T20:36:00.928Z,99.90
2018-08-27T20:41:03.980Z,99.90
2018-08-27T20:46:07.014Z,99.90
2018-08-27T20:51:10.065Z,99.90
2018-08-27T20:56:14.092Z,99.90
2018-08-27T21:01:17.100Z,99.90
2018-08-27T21:06:20.232Z,99.90
2018-08-27T21:11:24.423Z,99.90
2018-08-27T21:16:27.450Z,99.90
2018-08-27T21:21:30.493Z,99.90
2018-08-27T21:26:33.595Z,99.90
2018-08-27T21:31:36.626Z,99.90
2018-08-27T21:36:39.716Z,99.90
2018-08-27T21:41:42.774Z,99.90
2018-08-27T21:46:45.879Z,99.90
2018-08-27T21:51:48.962Z,99.90
2018-08-27T21:56:52.128Z,99.90
2018-08-27T22:01:55.174Z,99.90
2018-08-27T22:06:58.252Z,99.90
2018-08-27T22:12:01.319Z,99.90
2018-08-27T22:17:04.847Z,99.90
2018-08-27T22:22:07.915Z,99.90
2018-08-27T22:27:10.928Z,99.90
2018-08-27T22:32:13.978Z,99.90
2018-08-27T22:37:17.012Z,99.90
2018-08-27T22:42:20.068Z,99.90
2018-08-27T22:47:23.222Z,99.90
2018-08-27T22:52:27.370Z,99.90
2018-08-27T22:57:30.423Z,99.90
2018-08-27T23:02:38.744Z,99.90
2018-08-27T23:07:42.004Z,99.90
2018-08-27T23:12:45.099Z,99.90
2018-08-27T23:17:48.150Z,99.90
2018-08-27T23:22:51.211Z,99.90
2018-08-27T23:27:54.255Z,99.90
2018-08-27T23:32:57.346Z,99.90
2018-08-27T23:38:00.608Z,99.90
2018-08-27T23:43:03.784Z,99.90
2018-08-27T23:48:06.850Z,99.90
2018-08-27T23:53:09.961Z,99.90
2018-08-27T23:58:13.041Z,99.90
